Time;durP1;ratioP1;P1;durP2;ratioP2;P2;SDS_P1;SDS_P2;PMS_P1;PMS_P2;Temp;Humidity;BMP_temperature;BMP_pressure;BME280_temperature;BME280_humidity;BME280_pressure;Samples;Min_cycle;Max_cycle;Signal;HPM_P1;HPM_P2
2022/09/02 00:04:02;;;;;;;1999.90;999.90;;;;;;;17.76;62.47;99196.53;8318635;28;20060;-79
2022/09/02 00:08:05;;;;;;;1999.90;999.90;;;;;;;17.71;62.58;99197.63;8331505;28;20032;-78
2022/09/02 00:12:07;;;;;;;1999.90;999.90;;;;;;;17.67;62.55;99196.00;8334954;28;20605;-78
2022/09/02 00:16:10;;;;;;;1999.90;999.90;;;;;;;17.66;62.46;99196.91;8339755;28;20059;-79
2022/09/02 00:20:12;;;;;;;1999.90;999.90;;;;;;;17.66;62.42;99191.66;8331622;28;20065;-79
2022/09/02 00:24:14;;;;;;;1999.90;999.90;;;;;;;17.64;63.04;99178.56;8325964;28;20068;-78
2022/09/02 00:28:17;;;;;;;1999.90;999.90;;;;;;;17.63;62.33;99189.16;8341158;28;20037;-78
2022/09/02 00:32:23;;;;;;;1999.90;999.90;;;;;;;17.61;62.33;99185.72;8339692;28;20052;-79
2022/09/02 00:36:36;;;;;;;1999.90;999.90;;;;;;;17.61;62.67;99185.72;8339904;28;20053;-79
2022/09/02 00:40:52;;;;;;;1999.90;999.90;;;;;;;17.56;62.65;99177.13;8350498;28;20120;-79
2022/09/02 00:44:57;;;;;;;1999.90;999.90;;;;;;;17.48;62.99;99180.03;8342608;28;20466;-79
2022/09/02 00:49:14;;;;;;;1999.90;999.90;;;;;;;17.35;63.48;99184.00;8351116;28;20037;-79
2022/09/02 00:53:19;;;;;;;1999.90;999.90;;;;;;;17.14;63.89;99183.00;8333324;28;20044;-79
2022/09/02 00:57:40;;;;;;;1999.90;999.90;;;;;;;16.84;64.82;99182.25;8341052;28;20077;-79
2022/09/02 01:01:43;;;;;;;1999.90;999.90;;;;;;;16.53;65.80;99180.63;8336422;28;20531;-79
2022/09/02 01:05:48;;;;;;;1999.90;999.90;;;;;;;16.36;66.83;99180.28;8316843;28;20110;-79
2022/09/02 01:09:54;;;;;;;1999.90;999.90;;;;;;;16.21;67.38;99176.38;8336400;28;20045;-79
2022/09/02 01:14:11;;;;;;;1999.90;999.90;;;;;;;16.11;68.10;99181.91;8339443;28;20057;-79
2022/09/02 01:18:24;;;;;;;1999.90;999.90;;;;;;;16.04;68.44;99180.41;8347361;28;20095;-79
2022/09/02 01:22:58;;;;;;;1999.90;999.90;;;;;;;15.99;68.44;99196.25;8331390;28;20063;-79
2022/09/02 01:27:03;;;;;;;1999.90;999.90;;;;;;;15.95;68.56;99192.00;8328618;28;20488;-79
2022/09/02 01:31:05;;;;;;;1999.90;999.90;;;;;;;15.97;68.33;99190.19;8340810;28;20040;-78
2022/09/02 01:35:08;;;;;;;1999.90;999.90;;;;;;;15.92;68.37;99189.47;8326445;28;20800;-79
2022/09/02 01:39:11;;;;;;;1999.90;999.90;;;;;;;15.95;68.31;99192.84;8341020;28;20124;-78
2022/09/02 01:43:16;;;;;;;1999.90;999.90;;;;;;;16.00;67.91;99183.13;8335039;28;20080;-79
2022/09/02 01:47:23;;;;;;;1999.90;999.90;;;;;;;16.03;67.68;99182.16;8340880;28;20110;-78
2022/09/02 01:51:25;;;;;;;1999.90;999.90;;;;;;;16.08;67.06;99185.50;8323819;28;20151;-79
2022/09/02 01:55:27;;;;;;;1999.90;999.90;;;;;;;16.11;66.98;99184.53;8336847;28;20128;-79
2022/09/02 01:59:29;;;;;;;1999.90;999.90;;;;;;;16.13;67.19;99180.13;8351088;28;20037;-78
2022/09/02 02:03:31;;;;;;;1999.90;999.90;;;;;;;16.10;66.76;99177.59;8322034;28;20048;-78
2022/09/02 02:07:34;;;;;;;1999.90;999.90;;;;;;;16.11;66.69;99181.91;8344568;28;20048;-79
2022/09/02 02:11:36;;;;;;;1999.90;999.90;;;;;;;16.07;66.93;99181.16;8322638;28;20059;-79
2022/09/02 02:15:39;;;;;;;1999.90;999.90;;;;;;;16.06;66.86;99183.84;8344377;28;20073;-78
2022/09/02 02:19:42;;;;;;;1999.90;999.90;;;;;;;16.04;66.63;99180.41;8357879;28;20052;-78
2022/09/02 02:23:44;;;;;;;1999.90;999.90;;;;;;;16.07;66.04;99182.94;8323630;28;20088;-78
2022/09/02 02:27:46;;;;;;;1999.90;999.90;;;;;;;16.11;65.86;99182.78;8339630;28;20052;-79
2022/09/02 02:31:47;;;;;;;1999.90;999.90;;;;;;;16.11;66.01;99180.16;8340459;28;20297;-79
2022/09/02 02:35:54;;;;;;;1999.90;999.90;;;;;;;16.16;65.58;99174.81;8352993;28;20981;-78
2022/09/02 02:39:57;;;;;;;1999.90;999.90;;;;;;;16.19;65.38;99174.72;8336827;28;20091;-79
2022/09/02 02:43:58;;;;;;;;;;;;;;;16.21;65.23;99167.66;8347608;28;20041;-79
2022/09/02 02:48:02;;;;;;;1999.90;999.90;;;;;;;16.20;65.10;99172.03;8354531;28;20407;-79
2022/09/02 02:52:03;;;;;;;1999.90;999.90;;;;;;;16.22;64.65;99170.22;8341655;28;20151;-78
2022/09/02 02:56:06;;;;;;;1999.90;999.90;;;;;;;16.22;64.71;99174.59;8336968;28;20076;-79
2022/09/02 03:00:21;;;;;;;1999.90;999.90;;;;;;;16.24;64.98;99172.78;8335828;28;20147;-78
2022/09/02 03:04:25;;;;;;;1999.90;999.90;;;;;;;16.21;64.78;99173.75;8330436;28;20111;-78
2022/09/02 03:08:27;;;;;;;1999.90;999.90;;;;;;;16.26;64.53;99176.22;8333196;28;20763;-78
2022/09/02 03:12:31;;;;;;;1999.90;999.90;;;;;;;16.23;64.58;99173.69;8350522;28;20084;-78
2022/09/02 03:16:35;;;;;;;1999.90;999.90;;;;;;;16.24;64.76;99173.66;8346452;28;20045;-79
2022/09/02 03:20:38;;;;;;;1999.90;999.90;;;;;;;16.22;64.40;99177.22;8337014;28;20041;-78
2022/09/02 03:24:42;;;;;;;1999.90;999.90;;;;;;;16.17;65.20;99179.13;8348649;28;20049;-79
2022/09/02 03:28:44;;;;;;;1999.90;999.90;;;;;;;16.13;64.96;99185.34;8334502;28;20468;-78
2022/09/02 03:32:45;;;;;;;1999.90;999.90;;;;;;;16.09;65.01;99176.72;8328533;28;20063;-78
2022/09/02 03:36:48;;;;;;;;;;;;;;;16.07;65.17;99173.31;8334443;28;20359;-79
2022/09/02 03:40:49;;;;;;;1999.90;999.90;;;;;;;16.05;65.23;99176.88;8338292;28;20276;-78
2022/09/02 03:44:51;;;;;;;1999.90;999.90;;;;;;;16.02;65.23;99176.06;8348982;28;20051;-78
2022/09/02 03:48:52;;;;;;;1999.90;999.90;;;;;;;16.00;65.50;99171.78;8346735;28;20041;-78
2022/09/02 03:52:55;;;;;;;1999.90;999.90;;;;;;;15.92;65.67;99169.38;8354934;28;20048;-78
2022/09/02 03:56:57;;;;;;;1999.90;999.90;;;;;;;15.87;65.85;99163.44;8356828;28;20055;-79
2022/09/02 04:00:59;;;;;;;1999.90;999.90;;;;;;;15.86;65.64;99171.34;8346175;28;20162;-78
2022/09/02 04:05:00;;;;;;;1999.90;999.90;;;;;;;15.85;65.86;99169.63;8356688;28;20059;-79
2022/09/02 04:09:03;;;;;;;1999.90;999.90;;;;;;;15.78;65.94;99170.69;8338797;28;20071;-79
2022/09/02 04:13:06;;;;;;;1999.90;999.90;;;;;;;15.72;66.27;99166.50;8354386;28;20045;-78
2022/09/02 04:17:08;;;;;;;1999.90;999.90;;;;;;;15.74;66.32;99167.31;8342622;28;20481;-78
2022/09/02 04:21:10;;;;;;;1999.90;999.90;;;;;;;15.73;66.10;99167.34;8319654;28;20033;-78
2022/09/02 04:25:11;;;;;;;1999.90;999.90;;;;;;;15.69;66.37;99169.19;8352929;28;20125;-78
2022/09/02 04:29:14;;;;;;;1999.90;999.90;;;;;;;15.66;66.49;99162.31;8335421;28;20548;-78
2022/09/02 04:33:16;;;;;;;1999.90;999.90;;;;;;;15.63;66.64;99156.31;8338509;28;20106;-78
2022/09/02 04:37:18;;;;;;;1999.90;999.90;;;;;;;15.58;66.70;99159.00;8321684;28;20102;-79
2022/09/02 04:41:23;;;;;;;1999.90;999.90;;;;;;;15.58;66.82;99158.13;8327721;28;20041;-79
2022/09/02 04:45:25;;;;;;;1999.90;999.90;;;;;;;15.50;67.25;99160.13;8342953;28;20076;-78
2022/09/02 04:49:32;;;;;;;1999.90;999.90;;;;;;;15.47;67.13;99157.59;8339739;28;20052;-78
2022/09/02 04:53:34;;;;;;;1999.90;999.90;;;;;;;15.41;67.25;99158.59;8321471;28;20102;-79
2022/09/02 04:57:38;;;;;;;1999.90;999.90;;;;;;;15.41;67.44;99159.47;8311769;28;20126;-78
2022/09/02 05:01:42;;;;;;;1999.90;999.90;;;;;;;15.37;67.39;99157.84;8351306;28;20064;-79
2022/09/02 05:06:05;;;;;;;1999.90;999.90;;;;;;;15.36;67.88;99163.13;8347228;28;20553;-79
2022/09/02 05:10:17;;;;;;;1999.90;999.90;;;;;;;15.29;67.58;99154.59;8334857;28;20037;-79
2022/09/02 05:14:27;;;;;;;1999.90;999.90;;;;;;;15.03;68.72;99160.50;8346262;28;20044;-78
2022/09/02 05:18:54;;;;;;;1999.90;999.90;;;;;;;14.97;69.50;99170.25;8349341;28;20131;-79
2022/09/02 05:23:15;;;;;;;1999.90;999.90;;;;;;;15.04;69.38;99156.13;8352090;28;20053;-78
2022/09/02 05:27:32;;;;;;;1999.90;999.90;;;;;;;15.14;69.20;99160.22;8347543;28;20139;-78
2022/09/02 05:31:52;;;;;;;1999.90;999.90;;;;;;;15.28;68.68;99157.25;8340324;28;20574;-78
2022/09/02 05:36:14;;;;;;;1999.90;999.90;;;;;;;15.42;68.20;99165.56;8330215;28;20057;-79
2022/09/02 05:40:21;;;;;;;1999.90;999.90;;;;;;;15.52;67.57;99164.41;8322841;28;20048;-78
2022/09/02 05:44:23;;;;;;;1999.90;999.90;;;;;;;15.62;67.29;99155.44;8321154;28;20475;-78
2022/09/02 05:52:59;;;;;;;1999.90;999.90;;;;;;;15.93;66.28;99151.91;8310763;28;20052;-77
2022/09/02 05:57:08;;;;;;;1999.90;999.90;;;;;;;16.13;65.69;99149.53;8336026;28;20057;-78
2022/09/02 06:01:11;;;;;;;1999.90;999.90;;;;;;;16.55;64.57;99156.97;8351717;28;20068;-77
2022/09/02 06:05:12;;;;;;;1999.90;999.90;;;;;;;17.31;61.91;99150.91;8318464;28;20080;-77
2022/09/02 06:09:17;;;;;;;1999.90;999.90;;;;;;;17.61;60.50;99148.97;8330923;28;20119;-77
2022/09/02 06:13:21;;;;;;;1999.90;999.90;;;;;;;17.88;59.50;99142.69;8343581;28;20045;-78
2022/09/02 06:17:23;;;;;;;1999.90;999.90;;;;;;;18.14;58.49;99144.34;8337811;28;20151;-78
2022/09/02 06:21:26;;;;;;;1999.90;999.90;;;;;;;18.42;57.69;99152.81;8331705;28;20064;-77
2022/09/02 06:25:27;;;;;;;1999.90;999.90;;;;;;;18.70;56.68;99138.59;8333941;28;20051;-79
2022/09/02 06:29:29;;;;;;;1999.90;999.90;;;;;;;18.95;55.80;99139.25;8312884;28;20033;-77
2022/09/02 06:33:31;;;;;;;1999.90;999.90;;;;;;;19.25;54.78;99139.72;8342109;28;20145;-77
2022/09/02 06:37:32;;;;;;;1999.90;999.90;;;;;;;19.51;53.77;99140.34;8339266;28;20155;-79
2022/09/02 06:41:34;;;;;;;1999.90;999.90;;;;;;;19.77;52.86;99136.56;8319428;28;20057;-78
2022/09/02 06:45:40;;;;;;;1999.90;999.90;;;;;;;19.98;52.12;99135.56;8330424;28;20080;-80
2022/09/02 06:49:42;;;;;;;1999.90;999.90;;;;;;;20.14;51.47;99133.94;8334875;28;20075;-77
2022/09/02 06:53:44;;;;;;;1999.90;999.90;;;;;;;20.30;50.74;99120.88;8354167;28;20049;-81
2022/09/02 06:57:45;;;;;;;1999.90;999.90;;;;;;;20.51;50.37;99126.91;8326892;28;20083;-77
2022/09/02 07:01:47;;;;;;;1999.90;999.90;;;;;;;20.76;49.66;99135.31;8349308;28;20132;-78
2022/09/02 07:06:08;;;;;;;;;;;;;;;20.97;48.58;99130.72;8350981;28;20656;-78
2022/09/02 07:10:12;;;;;;;1999.90;999.90;;;;;;;21.27;48.40;99136.25;8351301;28;19984;-77
2022/09/02 07:14:18;;;;;;;1999.90;999.90;;;;;;;21.48;47.36;99131.63;8334845;28;20052;-79
2022/09/02 07:18:20;;;;;;;1999.90;999.90;;;;;;;21.66;46.35;99125.34;8351121;28;20489;-78
2022/09/02 07:22:22;;;;;;;1999.90;999.90;;;;;;;21.79;45.93;99130.00;8349594;28;20128;-78
2022/09/02 07:26:24;;;;;;;1999.90;999.90;;;;;;;21.99;45.01;99140.31;8328666;28;20052;-79
2022/09/02 07:30:26;;;;;;;1999.90;999.90;;;;;;;22.10;44.48;99126.56;8335670;28;20033;-79
2022/09/02 07:34:28;;;;;;;1999.90;999.90;;;;;;;22.25;44.09;99133.59;8314043;28;20155;-78
2022/09/02 07:38:30;;;;;;;1999.90;999.90;;;;;;;22.42;43.74;99130.00;8317836;28;20052;-79
2022/09/02 07:42:33;;;;;;;1999.90;999.90;;;;;;;22.58;43.02;99128.19;8318782;28;20450;-78
2022/09/02 07:46:35;;;;;;;;;;;;;;;22.76;42.81;99128.91;8306872;28;20060;-80
2022/09/02 07:50:37;;;;;;;1999.90;999.90;;;;;;;22.85;41.88;99131.91;8316770;28;20427;-79
2022/09/02 07:54:38;;;;;;;1999.90;999.90;;;;;;;22.98;41.48;99132.06;8321272;28;20120;-80
2022/09/02 07:58:44;;;;;;;1999.90;999.90;;;;;;;23.18;41.27;99126.41;8322413;28;20037;-80
2022/09/02 08:02:46;;;;;;;1999.90;999.90;;;;;;;23.37;40.77;99130.59;8315266;28;20046;-79
2022/09/02 08:06:48;;;;;;;1999.90;999.90;;;;;;;23.63;40.30;99132.53;8310995;28;20617;-79
2022/09/02 08:10:50;;;;;;;;;;;;;;;23.83;39.70;99133.06;8331131;28;20612;-79
2022/09/02 08:14:51;;;;;;;1999.90;999.90;;;;;;;24.03;39.25;99130.00;8307722;28;20472;-80
2022/09/02 08:18:54;;;;;;;1999.90;999.90;;;;;;;24.24;38.66;99133.13;8307659;28;20049;-78
2022/09/02 08:22:57;;;;;;;1999.90;999.90;;;;;;;24.45;38.37;99125.59;8324036;28;20530;-79
2022/09/02 08:27:12;;;;;;;1999.90;999.90;;;;;;;24.60;37.74;99124.59;8318103;28;20053;-79
2022/09/02 08:31:13;;;;;;;1999.90;999.90;;;;;;;24.74;37.69;99113.88;8316155;28;20132;-79
2022/09/02 08:35:16;;;;;;;1999.90;999.90;;;;;;;24.94;36.99;99117.84;8314295;28;20053;-79
2022/09/02 08:39:18;;;;;;;1999.90;999.90;;;;;;;25.13;36.34;99115.66;8311471;28;20056;-79
2022/09/02 08:43:39;;;;;;;;;;;;;;;25.15;35.75;99111.13;8324135;28;20048;-79
2022/09/02 08:47:45;;;;;;;1999.90;999.90;;;;;;;25.30;35.70;99111.84;8315614;28;20079;-79
2022/09/02 08:51:54;;;;;;;1999.90;999.90;;;;;;;25.40;35.33;99115.59;8317354;28;20061;-80
2022/09/02 08:56:01;;;;;;;1999.90;999.90;;;;;;;25.57;34.75;99109.09;8307119;28;20079;-80
2022/09/02 09:00:03;;;;;;;1999.90;999.90;;;;;;;25.67;34.68;99110.13;8317927;28;20037;-80
2022/09/02 09:04:41;;;;;;;1999.90;999.90;;;;;;;25.83;34.43;99116.09;8331651;28;20083;-79
2022/09/02 09:08:56;;;;;;;1999.90;999.90;;;;;;;25.73;34.28;99108.88;8296788;28;20478;-80
2022/09/02 09:13:42;;;;;;;1999.90;999.90;;;;;;;25.77;34.39;99103.22;8314376;28;20045;-80
2022/09/02 09:17:51;;;;;;;1999.90;999.90;;;;;;;25.88;33.80;99100.66;8331022;28;20053;-80
2022/09/02 09:21:54;;;;;;;1999.90;999.90;;;;;;;26.12;33.83;99102.50;8316472;28;20046;-80
2022/09/02 09:26:05;;;;;;;1999.90;999.90;;;;;;;26.31;33.29;99092.19;8294650;28;20077;-80
2022/09/02 09:30:09;;;;;;;1999.90;999.90;;;;;;;26.47;32.50;99089.28;8299419;28;20651;-80
2022/09/02 09:34:16;;;;;;;1999.90;999.90;;;;;;;26.56;32.15;99075.25;8323750;28;20064;-80
2022/09/02 09:38:30;;;;;;;1999.90;999.90;;;;;;;26.64;31.77;99077.38;8361378;28;20045;-79
2022/09/02 09:42:36;;;;;;;1999.90;999.90;;;;;;;26.75;30.50;99072.94;8336924;28;20068;-79
2022/09/02 09:46:39;;;;;;;1999.90;999.90;;;;;;;26.91;29.85;99072.59;8347607;28;20040;-79
2022/09/02 09:50:43;;;;;;;1999.90;999.90;;;;;;;26.98;29.62;99071.19;8349123;28;20056;-78
2022/09/02 09:54:45;;;;;;;1999.90;999.90;;;;;;;27.04;28.87;99052.06;8330369;28;20056;-79
2022/09/02 09:58:48;;;;;;;1999.90;999.90;;;;;;;27.01;28.21;99048.78;8336181;28;20054;-80
2022/09/02 10:02:56;;;;;;;1999.90;999.90;;;;;;;27.03;28.06;99053.03;8344553;28;20041;-79
2022/09/02 10:07:00;;;;;;;1999.90;999.90;;;;;;;27.12;27.64;99043.50;8317831;28;20044;-80
2022/09/02 10:11:18;;;;;;;1999.90;999.90;;;;;;;27.20;27.38;99049.06;8340690;28;20044;-79
2022/09/02 10:15:28;;;;;;;1999.90;999.90;;;;;;;27.18;26.38;99056.34;8344354;28;20045;-79
2022/09/02 10:19:43;;;;;;;1999.90;999.90;;;;;;;27.12;26.43;99042.66;8346968;28;20516;-78
2022/09/02 10:24:11;;;;;;;1999.90;999.90;;;;;;;27.15;26.24;99037.91;8349801;28;20081;-79
2022/09/02 10:28:22;;;;;;;1999.90;999.90;;;;;;;27.30;25.82;99027.88;8326225;28;20154;-78
2022/09/02 10:32:48;;;;;;;1999.90;999.90;;;;;;;27.38;26.31;99025.44;8348583;28;20098;-79
2022/09/02 10:36:58;;;;;;;1999.90;999.90;;;;;;;27.51;26.02;99026.16;8338518;28;20151;-80
2022/09/02 10:41:13;;;;;;;1999.90;999.90;;;;;;;27.44;25.98;99016.94;8334440;28;20510;-79
2022/09/02 10:45:33;;;;;;;1999.90;999.90;;;;;;;27.55;26.18;99034.75;8331132;28;20069;-79
2022/09/02 10:50:22;;;;;;;1999.90;999.90;;;;;;;27.60;25.77;99033.41;8311866;28;20059;-79
2022/09/02 10:55:04;;;;;;;1999.90;999.90;;;;;;;27.66;25.78;99010.78;8309371;28;20501;-79
2022/09/02 10:59:11;;;;;;;1999.90;999.90;;;;;;;27.72;25.09;99012.09;8324636;28;20095;-79
2022/09/02 11:03:42;;;;;;;1999.90;999.90;;;;;;;27.65;25.17;99009.09;8344299;28;20083;-78
2022/09/02 11:08:09;;;;;;;1999.90;999.90;;;;;;;27.63;25.39;99005.66;8329758;28;20489;-79
2022/09/02 11:12:15;;;;;;;1999.90;999.90;;;;;;;27.75;25.35;98999.34;8311295;28;20152;-78
2022/09/02 11:16:50;;;;;;;1999.90;999.90;;;;;;;27.86;24.92;99004.66;8329771;28;20056;-77
2022/09/02 11:21:18;;;;;;;1999.90;999.90;;;;;;;27.95;24.64;98997.72;8335631;28;20064;-77
2022/09/02 11:25:37;;;;;;;1999.90;999.90;;;;;;;27.95;24.59;99000.38;8334418;28;20079;-77
2022/09/02 11:29:59;;;;;;;1999.90;999.90;;;;;;;28.02;24.98;98992.72;8333245;28;20122;-78
2022/09/02 11:34:11;;;;;;;1999.90;999.90;;;;;;;28.14;25.05;98987.19;8344789;28;20052;-78
2022/09/02 11:38:38;;;;;;;1999.90;999.90;;;;;;;28.41;25.10;98993.94;8352377;28;20079;-77
2022/09/02 11:43:22;;;;;;;1999.90;999.90;;;;;;;28.44;24.32;98989.16;8353131;28;20143;-77
2022/09/02 11:47:49;;;;;;;1999.90;999.90;;;;;;;28.43;24.29;98976.78;8344877;28;20415;-78
2022/09/02 11:51:54;;;;;;;1999.90;999.90;;;;;;;28.42;24.53;98991.13;8352700;28;20045;-77
2022/09/02 11:56:27;;;;;;;1999.90;999.90;;;;;;;28.46;24.03;98976.53;8352114;28;20111;-78
2022/09/02 12:00:37;;;;;;;1999.90;999.90;;;;;;;28.51;24.46;98973.47;8356893;28;20091;-78
2022/09/02 12:04:39;;;;;;;1999.90;999.90;;;;;;;28.53;24.58;98975.00;8351782;28;20067;-78
2022/09/02 12:09:05;;;;;;;1999.90;999.90;;;;;;;28.59;24.07;98963.81;8377397;28;20163;-78
2022/09/02 12:13:11;;;;;;;1999.90;999.90;;;;;;;28.53;24.07;98968.81;8363158;28;20048;-78
2022/09/02 12:17:36;;;;;;;1999.90;999.90;;;;;;;28.54;24.64;98958.00;8357490;28;20052;-77
2022/09/02 12:22:16;;;;;;;1999.90;999.90;;;;;;;28.63;24.64;98955.53;8380938;28;20118;-77
2022/09/02 12:26:48;;;;;;;1999.90;999.90;;;;;;;28.75;24.70;98958.00;8378779;28;20049;-77
2022/09/02 12:30:54;;;;;;;1999.90;999.90;;;;;;;28.75;24.44;98944.66;8356920;28;20053;-77
2022/09/02 12:35:07;;;;;;;1999.90;999.90;;;;;;;28.81;24.36;98937.91;8372045;28;20080;-76
2022/09/02 12:39:27;;;;;;;1999.90;999.90;;;;;;;28.81;24.54;98925.41;8342298;28;20068;-77
2022/09/02 12:43:46;;;;;;;1999.90;999.90;;;;;;;28.94;24.21;98933.25;8376996;28;20127;-76
2022/09/02 12:48:21;;;;;;;1999.90;999.90;;;;;;;28.93;23.89;98920.84;8351413;28;20526;-76
2022/09/02 12:52:42;;;;;;;1999.90;999.90;;;;;;;28.97;24.24;98914.25;8356403;28;20053;-77
2022/09/02 12:56:51;;;;;;;1999.90;999.90;;;;;;;29.02;24.04;98903.16;8343897;28;20087;-77
2022/09/02 13:01:02;;;;;;;1999.90;999.90;;;;;;;29.22;24.61;98910.25;8374089;28;20570;-77
2022/09/02 13:05:14;;;;;;;1999.90;999.90;;;;;;;29.12;24.43;98898.69;8360302;28;20062;-76
2022/09/02 13:09:28;;;;;;;1999.90;999.90;;;;;;;29.09;24.33;98888.28;8360390;28;20045;-76
2022/09/02 13:13:50;;;;;;;1999.90;999.90;;;;;;;29.05;24.57;98884.16;8367062;28;20060;-77
2022/09/02 13:18:19;;;;;;;1999.90;999.90;;;;;;;28.99;24.31;98879.38;8360068;28;20139;-77
2022/09/02 13:22:54;;;;;;;1999.90;999.90;;;;;;;28.99;24.90;98876.69;8381042;28;20709;-78
2022/09/02 13:27:35;;;;;;;1999.90;999.90;;;;;;;29.02;24.30;98882.59;8353122;28;20159;-77
2022/09/02 13:31:37;;;;;;;1999.90;999.90;;;;;;;28.89;24.41;98872.13;8362652;28;20179;-77
2022/09/02 13:35:40;;;;;;;1999.90;999.90;;;;;;;28.89;24.76;98874.81;8383422;28;20048;-77
2022/09/02 13:39:42;;;;;;;1999.90;999.90;;;;;;;28.96;25.00;98869.78;8367123;28;20535;-76
2022/09/02 13:43:44;;;;;;;1999.90;999.90;;;;;;;28.94;24.42;98860.22;8345447;28;20075;-77
2022/09/02 13:47:52;;;;;;;1999.90;999.90;;;;;;;28.92;24.57;98864.84;8347575;28;20074;-77
2022/09/02 13:51:55;;;;;;;1999.90;999.90;;;;;;;28.85;24.71;98870.69;8334347;28;20047;-77
2022/09/02 13:55:59;;;;;;;1999.90;999.90;;;;;;;28.92;24.87;98862.19;8351563;28;20055;-77
2022/09/02 14:00:25;;;;;;;1999.90;999.90;;;;;;;28.97;24.91;98859.94;8353393;28;20047;-77
2022/09/02 14:04:28;;;;;;;1999.90;999.90;;;;;;;28.93;24.62;98842.50;8336070;28;20049;-77
2022/09/02 14:08:30;;;;;;;1999.90;999.90;;;;;;;28.84;24.74;98844.94;8371329;28;20047;-76
2022/09/02 14:12:34;;;;;;;1999.90;999.90;;;;;;;28.86;25.18;98845.69;8350127;28;20449;-76
2022/09/02 14:16:35;;;;;;;1999.90;999.90;;;;;;;28.91;24.56;98850.66;8349421;28;20057;-77
2022/09/02 14:21:17;;;;;;;1999.90;999.90;;;;;;;28.89;24.87;98841.88;8338621;28;20109;-77
2022/09/02 14:25:21;;;;;;;1999.90;999.90;;;;;;;28.79;24.23;98836.50;8358634;28;20041;-79
2022/09/02 14:29:30;;;;;;;1999.90;999.90;;;;;;;28.89;24.94;98834.72;8354792;28;20048;-79
2022/09/02 14:33:35;;;;;;;1999.90;999.90;;;;;;;28.91;24.38;98820.41;8353352;28;20135;-79
2022/09/02 14:37:47;;;;;;;1999.90;999.90;;;;;;;29.01;24.35;98815.91;8358103;28;20131;-78
2022/09/02 14:41:55;;;;;;;1999.90;999.90;;;;;;;28.98;23.83;98811.69;8377591;28;20083;-79
2022/09/02 14:46:05;;;;;;;1999.90;999.90;;;;;;;29.07;24.10;98813.50;8355523;28;20040;-78
2022/09/02 14:50:16;;;;;;;1999.90;999.90;;;;;;;29.11;24.23;98803.41;8370378;28;20049;-78
2022/09/02 14:54:52;;;;;;;1999.90;999.90;;;;;;;29.19;24.55;98801.72;8375130;28;20063;-80
2022/09/02 14:58:56;;;;;;;1999.90;999.90;;;;;;;29.19;24.26;98808.91;8372704;28;20057;-79
2022/09/02 15:02:59;;;;;;;1999.90;999.90;;;;;;;29.17;24.25;98811.72;8338650;28;20659;-79
2022/09/02 15:07:02;;;;;;;1999.90;999.90;;;;;;;29.18;24.13;98808.06;8372895;28;20051;-78
2022/09/02 15:11:04;;;;;;;1999.90;999.90;;;;;;;29.15;24.24;98799.47;8342363;28;20144;-79
2022/09/02 15:15:09;;;;;;;1999.90;999.90;;;;;;;29.12;24.50;98802.44;8358368;28;20504;-79
2022/09/02 15:19:11;;;;;;;1999.90;999.90;;;;;;;29.07;24.05;98815.34;8371470;28;20164;-78
2022/09/02 15:23:14;;;;;;;1999.90;999.90;;;;;;;29.05;24.82;98794.09;8356176;28;20509;-79
2022/09/02 15:27:16;;;;;;;1999.90;999.90;;;;;;;28.96;24.55;98802.13;8359070;28;20049;-79
2022/09/02 15:31:22;;;;;;;1999.90;999.90;;;;;;;28.79;24.72;98800.91;8336566;28;20448;-78
2022/09/02 15:35:25;;;;;;;1999.90;999.90;;;;;;;28.68;25.25;98796.50;8359048;28;20714;-78
2022/09/02 15:39:29;;;;;;;1999.90;999.90;;;;;;;28.79;25.29;98798.25;8370673;28;20063;-78
2022/09/02 15:43:31;;;;;;;1999.90;999.90;;;;;;;28.94;25.03;98804.94;8339361;28;20042;-79
2022/09/02 15:47:36;;;;;;;1999.90;999.90;;;;;;;28.97;25.01;98803.81;8344226;28;20056;-78
2022/09/02 15:51:43;;;;;;;1999.90;999.90;;;;;;;28.83;24.66;98803.16;8364998;28;20067;-79
2022/09/02 15:55:45;;;;;;;1999.90;999.90;;;;;;;28.59;25.10;98795.50;8364607;28;20373;-78
2022/09/02 15:59:47;;;;;;;1999.90;999.90;;;;;;;28.51;25.56;98787.31;8373332;28;20636;-78
2022/09/02 16:03:48;;;;;;;1999.90;999.90;;;;;;;28.73;25.55;98796.97;8373694;28;20219;-80
2022/09/02 16:07:53;;;;;;;1999.90;999.90;;;;;;;28.91;25.22;98788.31;8355566;28;20040;-79
2022/09/02 16:11:55;;;;;;;1999.90;999.90;;;;;;;28.96;25.37;98786.91;8385816;28;20114;-79
2022/09/02 16:16:01;;;;;;;1999.90;999.90;;;;;;;29.01;24.95;98784.66;8367666;28;20052;-80
2022/09/02 16:20:04;;;;;;;1999.90;999.90;;;;;;;29.30;24.71;98782.03;8368727;28;20053;-79
2022/09/02 16:24:07;;;;;;;1999.90;999.90;;;;;;;29.61;24.22;98782.75;8370461;28;20080;-80
2022/09/02 16:28:08;;;;;;;1999.90;999.90;;;;;;;29.84;23.83;98777.94;8369969;28;20040;-79
2022/09/02 16:32:10;;;;;;;1999.90;999.90;;;;;;;29.74;23.70;98775.28;8356866;28;20036;-79
2022/09/02 16:36:30;;;;;;;1999.90;999.90;;;;;;;29.01;24.63;98776.66;8371382;28;20056;-78
2022/09/02 16:40:33;;;;;;;1999.90;999.90;;;;;;;28.54;25.15;98779.00;8337409;28;20486;-80
2022/09/02 16:44:35;;;;;;;1999.90;999.90;;;;;;;28.02;25.30;98771.19;8371062;28;20044;-79
2022/09/02 16:48:38;;;;;;;1999.90;999.90;;;;;;;27.61;26.19;98772.81;8348292;28;20048;-78
2022/09/02 16:52:40;;;;;;;1999.90;999.90;;;;;;;27.31;26.91;98761.09;8372044;28;20517;-79
2022/09/02 16:56:41;;;;;;;1999.90;999.90;;;;;;;27.03;27.00;98759.88;8371659;28;20082;-78
2022/09/02 17:00:43;;;;;;;1999.90;999.90;;;;;;;26.75;27.30;98755.94;8366413;28;20717;-79
2022/09/02 17:04:44;;;;;;;;;;;;;;;26.56;27.84;98762.81;8356077;28;20071;-79
2022/09/02 17:08:47;;;;;;;1999.90;999.90;;;;;;;26.32;28.34;98760.28;8381142;28;19982;-79
2022/09/02 17:12:49;;;;;;;1999.90;999.90;;;;;;;26.11;28.69;98750.34;8354418;28;20075;-79
2022/09/02 17:16:51;;;;;;;1999.90;999.90;;;;;;;25.93;28.70;98758.94;8360628;28;20076;-79
2022/09/02 17:21:28;;;;;;;1999.90;999.90;;;;;;;25.75;29.05;98748.75;8349817;28;20110;-79
2022/09/02 17:25:30;;;;;;;1999.90;999.90;;;;;;;25.59;29.14;98746.38;8363683;28;20661;-79
2022/09/02 17:29:32;;;;;;;1999.90;999.90;;;;;;;25.42;29.76;98738.84;8353892;28;20048;-78
2022/09/02 17:33:52;;;;;;;1999.90;999.90;;;;;;;25.27;30.26;98745.28;8363318;28;20044;-78
2022/09/02 17:37:55;;;;;;;1999.90;999.90;;;;;;;25.15;30.18;98746.22;8349832;28;20064;-78
2022/09/02 17:41:56;;;;;;;1999.90;999.90;;;;;;;25.02;30.92;98738.31;8380305;28;20628;-78
2022/09/02 17:46:05;;;;;;;1999.90;999.90;;;;;;;24.89;31.00;98746.28;8359308;28;20056;-77
2022/09/02 17:50:07;;;;;;;1999.90;999.90;;;;;;;24.77;31.13;98743.69;8360552;28;20106;-78
2022/09/02 17:54:09;;;;;;;1999.90;999.90;;;;;;;24.63;32.05;98742.91;8365261;28;20044;-78
2022/09/02 17:58:19;;;;;;;1999.90;999.90;;;;;;;24.46;32.25;98739.75;8375705;28;21211;-78
2022/09/02 18:02:41;;;;;;;1999.90;999.90;;;;;;;24.33;32.50;98745.94;8373049;28;20036;-78
2022/09/02 18:06:48;;;;;;;1999.90;999.90;;;;;;;24.20;32.99;98741.56;8382171;28;20055;-78
2022/09/02 18:10:52;;;;;;;1999.90;999.90;;;;;;;24.08;33.31;98746.78;8377258;28;20450;-79
2022/09/02 18:15:00;;;;;;;1999.90;999.90;;;;;;;23.96;33.49;98750.28;8366020;28;20063;-78
2022/09/02 18:19:39;;;;;;;1999.90;999.90;;;;;;;23.86;33.49;98753.66;8369464;28;20060;-78
2022/09/02 18:23:54;;;;;;;1999.90;999.90;;;;;;;23.70;33.60;98743.28;8312390;28;20496;-77
2022/09/02 18:28:14;;;;;;;1999.90;999.90;;;;;;;23.60;33.83;98748.38;8375142;28;20040;-78
2022/09/02 18:32:37;;;;;;;1999.90;999.90;;;;;;;23.50;34.06;98745.44;8363574;28;20059;-78
2022/09/02 18:36:55;;;;;;;1999.90;999.90;;;;;;;23.42;34.37;98750.41;8347413;28;20073;-76